Decoded Metar for EKKA (KARUP in DENMARK) (IATA:KRP) | Meteo·Mobile Aviation Weather
aviador You're here:

EKKA Decoded Metar

KARUP in DENMARK
Report Time2019-01-21 16:50:00
UTC Time2019-01-21 16:56:18
Flight Rules vfr VFR
Wind270° at 06 kt
W.Decomp.*RWY 27: 6.0 kt HW 0.1 kt LCW
RWY 22: 3.9 kt HW 4.5 kt RCW
RWY 32: 3.8 kt HW 4.7 kt LCW
W.Rank270° ranks 5
Current wind is below 270° avg. (10.2)
Visibility9999 m
Phenomena:N/A
Clouds:N/A
Expected CloudBase > 400 ft AGL from Temp-Dew spread
CeilingNone
Temp00°C (ISA -15)
Dew Point-1°C (93% RH)
AAT-4.3°C
QNH1014 hPa
Density Alt-1,578 ft
Elevation171 ft
Report Wrong Elevation
Raw Report
METAR EKKA 211650Z AUTO 27006KT 9999NDV NCD 00/M01 Q1014 R27L/190195=

Extra information for EKKA:More info

Metar Taf Metar & Taf Last 4 Metars F.Rules Stats Wind Profile Meteogram Temp Stats Airport Information Weather charts Add Link Nearby VenuesMetar ALERT Operation Metar Decoded Social comments